sensor_id;sensor_type;location;lat;lon;timestamp;pressure;altitude;pressure_sealevel;temperature;humidity
22930;BME280;11630;42.660;23.292;2022-12-31T00:01:55;68150.17;;;5.55;100.00
22930;BME280;11630;42.660;23.292;2022-12-31T00:04:26;68159.88;;;5.59;100.00
22930;BME280;11630;42.660;23.292;2022-12-31T00:06:56;68170.22;;;5.76;100.00
22930;BME280;11630;42.660;23.292;2022-12-31T00:09:27;68188.66;;;5.93;100.00
22930;BME280;11630;42.660;23.292;2022-12-31T00:11:58;68207.61;;;6.08;100.00
22930;BME280;11630;42.660;23.292;2022-12-31T00:14:28;68202.22;;;6.08;100.00
22930;BME280;11630;42.660;23.292;2022-12-31T00:17:00;68223.02;;;6.15;100.00
22930;BME280;11630;42.660;23.292;2022-12-31T00:19:31;68225.47;;;6.21;100.00
22930;BME280;11630;42.660;23.292;2022-12-31T00:22:02;68233.59;;;6.31;100.00
22930;BME280;11630;42.660;23.292;2022-12-31T00:24:31;68229.80;;;6.28;100.00
22930;BME280;11630;42.660;23.292;2022-12-31T00:27:01;68229.26;;;6.25;100.00
22930;BME280;11630;42.660;23.292;2022-12-31T00:29:33;68206.01;;;6.11;100.00
22930;BME280;11630;42.660;23.292;2022-12-31T00:32:04;68215.45;;;6.13;100.00
22930;BME280;11630;42.660;23.292;2022-12-31T00:34:34;68211.93;;;6.11;100.00
22930;BME280;11630;42.660;23.292;2022-12-31T00:37:04;68208.67;;;6.08;100.00
22930;BME280;11630;42.660;23.292;2022-12-31T00:39:35;68210.31;;;6.10;100.00
22930;BME280;11630;42.660;23.292;2022-12-31T00:42:06;68209.76;;;6.09;100.00
22930;BME280;11630;42.660;23.292;2022-12-31T00:44:37;68223.30;;;6.19;100.00
22930;BME280;11630;42.660;23.292;2022-12-31T00:47:08;68231.16;;;6.30;100.00
22930;BME280;11630;42.660;23.292;2022-12-31T00:49:38;68247.42;;;6.45;100.00
22930;BME280;11630;42.660;23.292;2022-12-31T00:52:08;68266.10;;;6.59;100.00
22930;BME280;11630;42.660;23.292;2022-12-31T00:54:39;68263.39;;;6.56;100.00
22930;BME280;11630;42.660;23.292;2022-12-31T00:57:10;68278.58;;;6.73;100.00
22930;BME280;11630;42.660;23.292;2022-12-31T00:59:41;68292.70;;;6.88;100.00
22930;BME280;11630;42.660;23.292;2022-12-31T01:02:12;68278.58;;;6.73;100.00
22930;BME280;11630;42.660;23.292;2022-12-31T01:04:43;68260.42;;;6.55;100.00
22930;BME280;11630;42.660;23.292;2022-12-31T01:07:14;68286.72;;;6.80;100.00
22930;BME280;11630;42.660;23.292;2022-12-31T01:09:45;68268.84;;;6.66;100.00
22930;BME280;11630;42.660;23.292;2022-12-31T01:12:16;68282.11;;;6.77;100.00
22930;BME280;11630;42.660;23.292;2022-12-31T01:14:47;68292.14;;;6.87;100.00
22930;BME280;11630;42.660;23.292;2022-12-31T01:17:18;68285.91;;;6.83;100.00
22930;BME280;11630;42.660;23.292;2022-12-31T01:19:49;68288.61;;;6.83;100.00
22930;BME280;11630;42.660;23.292;2022-12-31T01:22:19;68303.77;;;6.92;100.00
22930;BME280;11630;42.660;23.292;2022-12-31T01:24:50;68266.11;;;6.61;100.00
22930;BME280;11630;42.660;23.292;2022-12-31T01:27:21;68253.91;;;6.49;100.00
22930;BME280;11630;42.660;23.292;2022-12-31T01:29:52;68246.06;;;6.43;100.00
22930;BME280;11630;42.660;23.292;2022-12-31T01:32:23;68257.16;;;6.52;100.00
22930;BME280;11630;42.660;23.292;2022-12-31T01:34:53;68247.96;;;6.43;100.00
22930;BME280;11630;42.660;23.292;2022-12-31T01:37:24;68238.20;;;6.34;100.00
22930;BME280;11630;42.660;23.292;2022-12-31T01:39:55;68271.28;;;6.67;100.00
22930;BME280;11630;42.660;23.292;2022-12-31T01:42:25;68265.58;;;6.61;100.00
22930;BME280;11630;42.660;23.292;2022-12-31T01:44:57;68251.77;;;6.49;100.00
22930;BME280;11630;42.660;23.292;2022-12-31T01:47:32;68240.66;;;6.40;100.00
22930;BME280;11630;42.660;23.292;2022-12-31T01:50:10;68240.38;;;6.36;100.00
22930;BME280;11630;42.660;23.292;2022-12-31T01:52:37;68216.81;;;6.18;100.00
22930;BME280;11630;42.660;23.292;2022-12-31T01:55:12;68195.94;;;5.96;100.00
22930;BME280;11630;42.660;23.292;2022-12-31T01:57:41;68178.34;;;5.81;100.00
22930;BME280;11630;42.660;23.292;2022-12-31T02:00:11;68178.66;;;5.87;100.00
22930;BME280;11630;42.660;23.292;2022-12-31T02:02:41;68190.01;;;5.93;100.00
22930;BME280;11630;42.660;23.292;2022-12-31T02:05:19;68202.17;;;6.03;100.00
22930;BME280;11630;42.660;23.292;2022-12-31T02:07:49;68193.24;;;5.96;100.00
22930;BME280;11630;42.660;23.292;2022-12-31T02:10:20;68204.08;;;6.03;100.00
22930;BME280;11630;42.660;23.292;2022-12-31T02:12:52;68176.73;;;5.82;100.00
22930;BME280;11630;42.660;23.292;2022-12-31T02:18:05;68153.97;;;5.61;100.00
22930;BME280;11630;42.660;23.292;2022-12-31T02:26:40;68170.73;;;5.71;100.00
22930;BME280;11630;42.660;23.292;2022-12-31T02:32:04;68163.68;;;5.65;100.00
22930;BME280;11630;42.660;23.292;2022-12-31T02:34:46;68165.32;;;5.66;100.00
22930;BME280;11630;42.660;23.292;2022-12-31T02:37:18;68140.44;;;5.48;100.00
22930;BME280;11630;42.660;23.292;2022-12-31T02:39:51;68149.09;;;5.54;100.00
22930;BME280;11630;42.660;23.292;2022-12-31T02:42:22;68138.77;;;5.42;100.00
22930;BME280;11630;42.660;23.292;2022-12-31T02:44:51;68128.81;;;5.39;100.00
22930;BME280;11630;42.660;23.292;2022-12-31T02:47:33;68136.64;;;5.45;100.00
22930;BME280;11630;42.660;23.292;2022-12-31T02:50:12;68129.59;;;5.36;100.00
22930;BME280;11630;42.660;23.292;2022-12-31T02:55:17;68125.27;;;5.32;100.00
22930;BME280;11630;42.660;23.292;2022-12-31T02:58:02;68120.12;;;5.26;100.00
22930;BME280;11630;42.660;23.292;2022-12-31T03:00:31;68130.13;;;5.34;100.00
22930;BME280;11630;42.660;23.292;2022-12-31T03:03:21;68142.34;;;5.49;100.00
22930;BME280;11630;42.660;23.292;2022-12-31T03:05:52;68118.23;;;5.28;100.00
22930;BME280;11630;42.660;23.292;2022-12-31T03:08:25;68099.59;;;5.12;100.00
22930;BME280;11630;42.660;23.292;2022-12-31T03:10:56;68100.90;;;5.10;100.00
22930;BME280;11630;42.660;23.292;2022-12-31T03:13:27;68108.22;;;5.18;100.00
22930;BME280;11630;42.660;23.292;2022-12-31T03:15:58;68122.26;;;5.26;100.00
22930;BME280;11630;42.660;23.292;2022-12-31T03:18:29;68117.95;;;5.24;100.00
22930;BME280;11630;42.660;23.292;2022-12-31T03:21:16;68105.52;;;5.15;100.00
22930;BME280;11630;42.660;23.292;2022-12-31T03:24:04;68103.07;;;5.12;100.00
22930;BME280;11630;42.660;23.292;2022-12-31T03:26:53;68094.14;;;5.02;100.00
22930;BME280;11630;42.660;23.292;2022-12-31T03:29:24;68099.55;;;5.10;100.00
22930;BME280;11630;42.660;23.292;2022-12-31T03:31:54;68098.77;;;5.10;100.00
22930;BME280;11630;42.660;23.292;2022-12-31T03:34:25;68109.04;;;5.20;100.00
22930;BME280;11630;42.660;23.292;2022-12-31T03:36:56;68115.77;;;5.20;100.00
22930;BME280;11630;42.660;23.292;2022-12-31T03:39:27;68106.59;;;5.16;100.00
22930;BME280;11630;42.660;23.292;2022-12-31T03:41:58;68080.07;;;4.89;100.00
22930;BME280;11630;42.660;23.292;2022-12-31T03:44:29;68066.54;;;4.77;100.00
22930;BME280;11630;42.660;23.292;2022-12-31T03:46:59;68067.36;;;4.79;100.00
22930;BME280;11630;42.660;23.292;2022-12-31T03:49:30;68053.02;;;4.67;100.00
22930;BME280;11630;42.660;23.292;2022-12-31T03:52:01;68074.91;;;4.83;100.00
22930;BME280;11630;42.660;23.292;2022-12-31T03:54:32;68046.29;;;4.64;100.00
22930;BME280;11630;42.660;23.292;2022-12-31T03:57:02;68061.41;;;4.73;100.00
22930;BME280;11630;42.660;23.292;2022-12-31T03:59:32;68038.70;;;4.55;100.00
22930;BME280;11630;42.660;23.292;2022-12-31T04:02:02;68050.03;;;4.60;100.00
22930;BME280;11630;42.660;23.292;2022-12-31T04:04:33;68036.27;;;4.52;100.00
22930;BME280;11630;42.660;23.292;2022-12-31T04:07:04;68054.08;;;4.63;100.00
22930;BME280;11630;42.660;23.292;2022-12-31T04:09:35;68064.13;;;4.78;100.00
22930;BME280;11630;42.660;23.292;2022-12-31T04:12:05;68036.00;;;4.53;100.00
22930;BME280;11630;42.660;23.292;2022-12-31T04:14:35;68040.58;;;4.55;100.00
22930;BME280;11630;42.660;23.292;2022-12-31T04:17:06;68022.72;;;4.37;100.00
22930;BME280;11630;42.660;23.292;2022-12-31T04:19:37;67995.94;;;4.11;100.00
22930;BME280;11630;42.660;23.292;2022-12-31T04:22:08;68001.64;;;4.20;100.00
22930;BME280;11630;42.660;23.292;2022-12-31T04:24:40;67993.30;;;4.16;100.00
22930;BME280;11630;42.660;23.292;2022-12-31T04:27:11;68008.42;;;4.27;100.00
22930;BME280;11630;42.660;23.292;2022-12-31T04:29:44;67997.61;;;4.20;100.00
22930;BME280;11630;42.660;23.292;2022-12-31T04:32:16;68022.42;;;4.35;100.00
22930;BME280;11630;42.660;23.292;2022-12-31T04:34:46;68009.77;;;4.27;100.00
22930;BME280;11630;42.660;23.292;2022-12-31T04:37:17;68011.63;;;4.25;100.00
22930;BME280;11630;42.660;23.292;2022-12-31T04:39:51;68007.88;;;4.27;100.00
22930;BME280;11630;42.660;23.292;2022-12-31T04:42:22;68005.17;;;4.24;100.00
22930;BME280;11630;42.660;23.292;2022-12-31T04:44:53;68021.38;;;4.37;100.00
22930;BME280;11630;42.660;23.292;2022-12-31T04:47:24;68052.49;;;4.66;100.00
22930;BME280;11630;42.660;23.292;2022-12-31T04:49:55;68015.44;;;4.34;100.00
22930;BME280;11630;42.660;23.292;2022-12-31T04:52:25;68010.04;;;4.29;100.00
22930;BME280;11630;42.660;23.292;2022-12-31T04:54:55;67999.72;;;4.14;100.00
22930;BME280;11630;42.660;23.292;2022-12-31T04:57:26;67985.16;;;4.06;100.00
22930;BME280;11630;42.660;23.292;2022-12-31T04:59:56;67995.42;;;4.13;100.00
22930;BME280;11630;42.660;23.292;2022-12-31T05:02:28;67997.84;;;4.14;100.00
22930;BME280;11630;42.660;23.292;2022-12-31T05:05:00;67981.11;;;4.01;100.00
22930;BME280;11630;42.660;23.292;2022-12-31T05:07:30;67983.82;;;4.06;100.00
22930;BME280;11630;42.660;23.292;2022-12-31T05:10:01;67987.58;;;4.04;100.00
22930;BME280;11630;42.660;23.292;2022-12-31T05:12:32;67998.10;;;4.13;100.00
22930;BME280;11630;42.660;23.292;2022-12-31T05:15:04;68005.41;;;4.21;100.00
22930;BME280;11630;42.660;23.292;2022-12-31T05:17:35;68017.85;;;4.32;100.00
22930;BME280;11630;42.660;23.292;2022-12-31T05:20:07;68025.44;;;4.42;100.00
22930;BME280;11630;42.660;23.292;2022-12-31T05:22:38;68027.04;;;4.41;100.00
22930;BME280;11630;42.660;23.292;2022-12-31T05:25:09;68041.94;;;4.58;100.00
22930;BME280;11630;42.660;23.292;2022-12-31T05:27:40;68022.20;;;4.39;100.00
22930;BME280;11630;42.660;23.292;2022-12-31T05:30:11;68026.78;;;4.42;100.00
22930;BME280;11630;42.660;23.292;2022-12-31T05:32:42;68011.07;;;4.25;100.00
22930;BME280;11630;42.660;23.292;2022-12-31T05:35:13;68031.92;;;4.48;100.00
22930;BME280;11630;42.660;23.292;2022-12-31T05:37:44;68010.86;;;4.31;100.00
22930;BME280;11630;42.660;23.292;2022-12-31T05:40:17;68022.72;;;4.37;100.00
22930;BME280;11630;42.660;23.292;2022-12-31T05:42:50;68021.38;;;4.37;100.00
22930;BME280;11630;42.660;23.292;2022-12-31T05:45:21;68017.87;;;4.35;100.00
22930;BME280;11630;42.660;23.292;2022-12-31T05:47:51;68033.53;;;4.47;100.00
22930;BME280;11630;42.660;23.292;2022-12-31T05:50:21;68017.04;;;4.33;100.00
22930;BME280;11630;42.660;23.292;2022-12-31T05:52:51;68008.39;;;4.25;100.00
22930;BME280;11630;42.660;23.292;2022-12-31T05:55:23;68002.42;;;4.17;100.00
22930;BME280;11630;42.660;23.292;2022-12-31T05:57:53;67999.47;;;4.18;100.00
22930;BME280;11630;42.660;23.292;2022-12-31T06:00:25;67969.52;;;3.94;100.00
22930;BME280;11630;42.660;23.292;2022-12-31T06:02:56;67964.64;;;3.89;100.00
22930;BME280;11630;42.660;23.292;2022-12-31T06:05:27;67972.14;;;3.89;100.00
22930;BME280;11630;42.660;23.292;2022-12-31T06:07:58;67971.11;;;3.93;100.00
22930;BME280;11630;42.660;23.292;2022-12-31T06:10:29;67977.03;;;3.96;100.00
22930;BME280;11630;42.660;23.292;2022-12-31T06:13:00;68003.55;;;4.23;100.00
22930;BME280;11630;42.660;23.292;2022-12-31T06:15:31;67995.70;;;4.17;100.00
22930;BME280;11630;42.660;23.292;2022-12-31T06:18:02;67989.48;;;4.10;100.00
22930;BME280;11630;42.660;23.292;2022-12-31T06:20:38;67989.46;;;4.07;100.00
22930;BME280;11630;42.660;23.292;2022-12-31T06:23:04;67979.20;;;3.98;100.00
22930;BME280;11630;42.660;23.292;2022-12-31T06:25:36;67972.71;;;3.92;100.00
22930;BME280;11630;42.660;23.292;2022-12-31T06:28:07;67961.38;;;3.84;100.00
22930;BME280;11630;42.660;23.292;2022-12-31T06:30:38;67965.41;;;3.84;100.00
22930;BME280;11630;42.660;23.292;2022-12-31T06:33:09;67953.24;;;3.74;100.00
22930;BME280;11630;42.660;23.292;2022-12-31T06:35:40;67950.81;;;3.73;100.00
22930;BME280;11630;42.660;23.292;2022-12-31T06:38:11;67957.04;;;3.80;100.00
22930;BME280;11630;42.660;23.292;2022-12-31T06:40:42;67977.59;;;3.99;100.00
22930;BME280;11630;42.660;23.292;2022-12-31T06:43:12;67988.94;;;4.07;100.00
22930;BME280;11630;42.660;23.292;2022-12-31T06:45:43;67991.11;;;4.11;100.00
22930;BME280;11630;42.660;23.292;2022-12-31T06:48:14;67996.79;;;4.18;100.00
22930;BME280;11630;42.660;23.292;2022-12-31T06:50:45;68004.59;;;4.19;100.00
22930;BME280;11630;42.660;23.292;2022-12-31T06:53:16;67992.98;;;4.12;100.00
22930;BME280;11630;42.660;23.292;2022-12-31T06:55:48;67992.72;;;4.10;100.00
22930;BME280;11630;42.660;23.292;2022-12-31T06:58:19;68000.57;;;4.21;100.00
22930;BME280;11630;42.660;23.292;2022-12-31T07:01:03;68021.64;;;4.36;100.00
22930;BME280;11630;42.660;23.292;2022-12-31T07:03:42;68037.86;;;4.51;100.00
22930;BME280;11630;42.660;23.292;2022-12-31T07:06:16;68043.78;;;4.53;100.00
22930;BME280;11630;42.660;23.292;2022-12-31T07:11:46;68070.35;;;4.85;100.00
22930;BME280;11630;42.660;23.292;2022-12-31T07:14:32;68121.72;;;5.25;100.00
22930;BME280;11630;42.660;23.292;2022-12-31T07:17:28;68163.16;;;5.67;100.00
22930;BME280;11630;42.660;23.292;2022-12-31T07:20:01;68218.99;;;6.20;100.00
22930;BME280;11630;42.660;23.292;2022-12-31T07:22:31;68288.08;;;6.83;100.00
22930;BME280;11630;42.660;23.292;2022-12-31T07:25:03;68331.73;;;7.24;100.00
22930;BME280;11630;42.660;23.292;2022-12-31T07:28:01;68350.97;;;7.40;100.00
22930;BME280;11630;42.660;23.292;2022-12-31T07:30:54;68405.51;;;7.91;100.00
22930;BME280;11630;42.660;23.292;2022-12-31T07:36:15;68499.97;;;8.75;100.00
22930;BME280;11630;42.660;23.292;2022-12-31T07:38:59;68528.20;;;8.99;100.00
22930;BME280;11630;42.660;23.292;2022-12-31T07:41:33;68557.52;;;9.25;100.00
22930;BME280;11630;42.660;23.292;2022-12-31T07:47:02;68573.02;;;9.38;100.00
22930;BME280;11630;42.660;23.292;2022-12-31T07:49:34;68601.56;;;9.71;100.00
22930;BME280;11630;42.660;23.292;2022-12-31T07:52:05;68654.32;;;10.16;100.00
22930;BME280;11630;42.660;23.292;2022-12-31T07:54:38;68631.73;;;9.94;100.00
22930;BME280;11630;42.660;23.292;2022-12-31T07:57:14;68688.84;;;10.52;100.00
22930;BME280;11630;42.660;23.292;2022-12-31T08:03:01;68809.67;;;11.52;100.00
22930;BME280;11630;42.660;23.292;2022-12-31T08:08:57;68863.59;;;12.04;100.00
22930;BME280;11630;42.660;23.292;2022-12-31T08:11:28;68860.04;;;11.97;99.20
22930;BME280;11630;42.660;23.292;2022-12-31T08:13:59;68875.28;;;12.18;99.39
22930;BME280;11630;42.660;23.292;2022-12-31T08:16:29;68810.76;;;11.58;100.00
22930;BME280;11630;42.660;23.292;2022-12-31T08:18:59;68819.20;;;11.69;100.00
22930;BME280;11630;42.660;23.292;2022-12-31T08:24:41;68819.74;;;11.65;99.63
22930;BME280;11630;42.660;23.292;2022-12-31T08:27:16;68867.66;;;12.06;99.30
22930;BME280;11630;42.660;23.292;2022-12-31T08:30:00;68905.25;;;12.45;95.21
22930;BME280;11630;42.660;23.292;2022-12-31T08:38:17;69012.12;;;13.40;89.91
22930;BME280;11630;42.660;23.292;2022-12-31T08:40:53;69063.66;;;13.88;87.63
22930;BME280;11630;42.660;23.292;2022-12-31T08:46:01;69122.33;;;14.43;84.02
22930;BME280;11630;42.660;23.292;2022-12-31T08:48:39;69150.72;;;14.61;82.83
22930;BME280;11630;42.660;23.292;2022-12-31T08:51:11;69162.72;;;14.80;81.82
22930;BME280;11630;42.660;23.292;2022-12-31T08:53:39;69193.03;;;15.04;80.66
22930;BME280;11630;42.660;23.292;2022-12-31T08:56:30;69191.94;;;15.05;80.06
22930;BME280;11630;42.660;23.292;2022-12-31T08:59:15;69230.19;;;15.38;79.69
22930;BME280;11630;42.660;23.292;2022-12-31T09:04:53;69161.09;;;14.76;80.35
22930;BME280;11630;42.660;23.292;2022-12-31T09:07:26;69139.81;;;14.54;79.92
22930;BME280;11630;42.660;23.292;2022-12-31T09:10:04;69190.84;;;15.02;79.01
22930;BME280;11630;42.660;23.292;2022-12-31T09:12:38;69215.70;;;15.31;77.44
22930;BME280;11630;42.660;23.292;2022-12-31T09:15:14;69098.06;;;14.17;80.39
22930;BME280;11630;42.660;23.292;2022-12-31T09:17:46;68990.03;;;13.19;84.77
22930;BME280;11630;42.660;23.292;2022-12-31T09:20:31;69143.89;;;14.59;82.15
22930;BME280;11630;42.660;23.292;2022-12-31T09:23:02;69124.78;;;14.44;80.84
22930;BME280;11630;42.660;23.292;2022-12-31T09:25:31;69178.29;;;14.95;80.94
22930;BME280;11630;42.660;23.292;2022-12-31T09:30:47;69223.91;;;15.36;77.75
22930;BME280;11630;42.660;23.292;2022-12-31T09:36:10;69262.44;;;15.59;74.29
22930;BME280;11630;42.660;23.292;2022-12-31T09:53:17;69085.20;;;14.09;80.78
22930;BME280;11630;42.660;23.292;2022-12-31T09:55:56;68974.22;;;13.07;84.79
22930;BME280;11630;42.660;23.292;2022-12-31T09:58:37;68890.53;;;12.32;89.94
22930;BME280;11630;42.660;23.292;2022-12-31T10:01:12;68902.80;;;12.42;89.69
22930;BME280;11630;42.660;23.292;2022-12-31T10:12:27;68852.14;;;12.01;93.11
22930;BME280;11630;42.660;23.292;2022-12-31T10:17:53;68808.84;;;11.55;95.33
22930;BME280;11630;42.660;23.292;2022-12-31T10:23:20;68818.65;;;11.64;96.91
22930;BME280;11630;42.660;23.292;2022-12-31T10:26:09;68854.59;;;11.97;95.28
22930;BME280;11630;42.660;23.292;2022-12-31T10:40:21;69025.47;;;13.59;86.35
22930;BME280;11630;42.660;23.292;2022-12-31T10:45:49;68979.41;;;13.08;88.23
22930;BME280;11630;42.660;23.292;2022-12-31T10:48:38;69015.66;;;13.47;86.55
22930;BME280;11630;42.660;23.292;2022-12-31T10:56:55;68990.84;;;13.23;87.87
22930;BME280;11630;42.660;23.292;2022-12-31T11:14:11;68927.87;;;12.65;89.64
22930;BME280;11630;42.660;23.292;2022-12-31T11:16:45;68961.95;;;12.95;88.91
22930;BME280;11630;42.660;23.292;2022-12-31T11:22:23;68890.53;;;12.32;92.18
22930;BME280;11630;42.660;23.292;2022-12-31T11:28:07;68928.14;;;12.61;91.29
22930;BME280;11630;42.660;23.292;2022-12-31T11:30:46;68930.06;;;12.64;91.31
22930;BME280;11630;42.660;23.292;2022-12-31T11:41:53;68878.83;;;12.18;93.98
22930;BME280;11630;42.660;23.292;2022-12-31T11:44:52;68887.82;;;12.22;93.57
22930;BME280;11630;42.660;23.292;2022-12-31T11:56:17;68917.25;;;12.56;92.89
22930;BME280;11630;42.660;23.292;2022-12-31T11:58:52;68932.78;;;12.67;92.61
22930;BME280;11630;42.660;23.292;2022-12-31T12:01:31;68921.06;;;12.60;92.57
22930;BME280;11630;42.660;23.292;2022-12-31T12:04:02;68914.23;;;12.57;92.25
22930;BME280;11630;42.660;23.292;2022-12-31T12:06:33;68927.33;;;12.64;92.30
22930;BME280;11630;42.660;23.292;2022-12-31T12:09:06;68925.68;;;12.65;92.20
22930;BME280;11630;42.660;23.292;2022-12-31T12:11:38;68919.16;;;12.64;92.25
22930;BME280;11630;42.660;23.292;2022-12-31T12:14:36;68933.58;;;12.66;92.68
22930;BME280;11630;42.660;23.292;2022-12-31T12:17:14;68923.50;;;12.58;92.80
22930;BME280;11630;42.660;23.292;2022-12-31T12:19:52;68923.52;;;12.66;92.82
22930;BME280;11630;42.660;23.292;2022-12-31T12:22:24;68929.78;;;12.70;92.45
22930;BME280;11630;42.660;23.292;2022-12-31T12:25:05;68928.69;;;12.69;92.34
22930;BME280;11630;42.660;23.292;2022-12-31T12:27:35;68937.13;;;12.73;92.52
22930;BME280;11630;42.660;23.292;2022-12-31T12:33:02;68936.31;;;12.79;93.71
22930;BME280;11630;42.660;23.292;2022-12-31T12:35:29;68949.97;;;12.89;92.97
22930;BME280;11630;42.660;23.292;2022-12-31T12:38:18;68948.30;;;12.85;93.18
22930;BME280;11630;42.660;23.292;2022-12-31T12:40:39;68955.41;;;12.91;93.06
22930;BME280;11630;42.660;23.292;2022-12-31T12:43:23;68953.23;;;12.89;93.01
22930;BME280;11630;42.660;23.292;2022-12-31T12:46:01;68949.66;;;12.87;93.03
22930;BME280;11630;42.660;23.292;2022-12-31T12:48:39;68958.14;;;12.91;93.43
22930;BME280;11630;42.660;23.292;2022-12-31T12:59:48;68980.75;;;13.18;92.55
22930;BME280;11630;42.660;23.292;2022-12-31T13:02:41;68977.76;;;13.16;93.10
22930;BME280;11630;42.660;23.292;2022-12-31T13:05:30;68986.21;;;13.15;92.99
22930;BME280;11630;42.660;23.292;2022-12-31T13:08:19;68979.13;;;13.11;93.17
22930;BME280;11630;42.660;23.292;2022-12-31T13:16:31;68967.41;;;13.05;94.34
22930;BME280;11630;42.660;23.292;2022-12-31T13:27:20;68986.22;;;13.23;92.91
22930;BME280;11630;42.660;23.292;2022-12-31T13:29:51;68979.94;;;13.11;92.98
22930;BME280;11630;42.660;23.292;2022-12-31T13:32:43;68969.85;;;13.03;93.44
22930;BME280;11630;42.660;23.292;2022-12-31T13:34:59;68972.30;;;13.06;93.31
22930;BME280;11630;42.660;23.292;2022-12-31T13:37:36;68975.84;;;13.11;93.35
22930;BME280;11630;42.660;23.292;2022-12-31T13:40:36;68960.05;;;12.99;93.33
22930;BME280;11630;42.660;23.292;2022-12-31T13:43:05;68967.39;;;13.02;94.01
22930;BME280;11630;42.660;23.292;2022-12-31T13:45:37;68961.40;;;12.94;94.70
22930;BME280;11630;42.660;23.292;2022-12-31T13:48:23;68956.78;;;12.91;95.12
22930;BME280;11630;42.660;23.292;2022-12-31T13:50:54;68955.67;;;12.85;95.59
22930;BME280;11630;42.660;23.292;2022-12-31T13:53:39;68933.86;;;12.75;95.37
22930;BME280;11630;42.660;23.292;2022-12-31T13:56:18;68934.41;;;12.68;96.29
22930;BME280;11630;42.660;23.292;2022-12-31T13:58:57;68905.52;;;12.47;96.83
22930;BME280;11630;42.660;23.292;2022-12-31T14:01:28;68899.81;;;12.43;96.94
22930;BME280;11630;42.660;23.292;2022-12-31T14:07:08;68886.19;;;12.28;97.76
22930;BME280;11630;42.660;23.292;2022-12-31T14:09:36;68867.66;;;12.11;98.40
22930;BME280;11630;42.660;23.292;2022-12-31T14:20:56;68781.62;;;11.40;100.00
22930;BME280;11630;42.660;23.292;2022-12-31T14:26:23;68771.81;;;11.24;100.00
22930;BME280;11630;42.660;23.292;2022-12-31T14:34:46;68706.25;;;10.68;100.00
22930;BME280;11630;42.660;23.292;2022-12-31T14:37:58;68675.80;;;10.40;100.00
22930;BME280;11630;42.660;23.292;2022-12-31T14:40:10;68680.41;;;10.35;100.00
22930;BME280;11630;42.660;23.292;2022-12-31T14:42:54;68681.50;;;10.44;100.00
22930;BME280;11630;42.660;23.292;2022-12-31T14:45:34;68694.83;;;10.50;100.00
22930;BME280;11630;42.660;23.292;2022-12-31T14:50:38;68673.34;;;10.34;100.00
22930;BME280;11630;42.660;23.292;2022-12-31T14:53:20;68664.91;;;10.22;100.00
22930;BME280;11630;42.660;23.292;2022-12-31T14:55:58;68644.52;;;10.05;100.00
22930;BME280;11630;42.660;23.292;2022-12-31T14:58:36;68638.55;;;10.02;100.00
22930;BME280;11630;42.660;23.292;2022-12-31T15:01:19;68627.11;;;9.94;100.00
22930;BME280;11630;42.660;23.292;2022-12-31T15:03:53;68619.77;;;9.86;100.00
22930;BME280;11630;42.660;23.292;2022-12-31T15:06:46;68603.75;;;9.75;100.00
22930;BME280;11630;42.660;23.292;2022-12-31T15:12:13;68609.18;;;9.80;100.00
22930;BME280;11630;42.660;23.292;2022-12-31T15:14:56;68612.98;;;9.81;100.00
22930;BME280;11630;42.660;23.292;2022-12-31T15:17:31;68604.81;;;9.74;100.00
22930;BME280;11630;42.660;23.292;2022-12-31T15:22:39;68579.02;;;9.51;100.00
22930;BME280;11630;42.660;23.292;2022-12-31T15:28:00;68561.89;;;9.32;100.00
22930;BME280;11630;42.660;23.292;2022-12-31T15:33:15;68555.11;;;9.29;100.00
22930;BME280;11630;42.660;23.292;2022-12-31T15:35:51;68554.28;;;9.25;100.00
22930;BME280;11630;42.660;23.292;2022-12-31T15:38:33;68552.09;;;9.20;100.00
22930;BME280;11630;42.660;23.292;2022-12-31T15:44:01;68539.64;;;9.17;100.00
22930;BME280;11630;42.660;23.292;2022-12-31T15:46:35;68529.30;;;9.05;100.00
22930;BME280;11630;42.660;23.292;2022-12-31T15:49:14;68527.94;;;9.02;100.00
22930;BME280;11630;42.660;23.292;2022-12-31T15:51:46;68521.98;;;9.02;100.00
22930;BME280;11630;42.660;23.292;2022-12-31T15:54:24;68521.95;;;8.94;100.00
22930;BME280;11630;42.660;23.292;2022-12-31T15:56:50;68520.86;;;8.91;100.00
22930;BME280;11630;42.660;23.292;2022-12-31T15:59:22;68512.73;;;8.91;100.00
22930;BME280;11630;42.660;23.292;2022-12-31T16:01:56;68514.08;;;8.86;100.00
22930;BME280;11630;42.660;23.292;2022-12-31T16:04:28;68512.17;;;8.85;100.00
22930;BME280;11630;42.660;23.292;2022-12-31T16:07:04;68499.98;;;8.80;100.00
22930;BME280;11630;42.660;23.292;2022-12-31T16:09:35;68499.97;;;8.78;100.00
22930;BME280;11630;42.660;23.292;2022-12-31T16:12:10;68501.33;;;8.78;100.00
22930;BME280;11630;42.660;23.292;2022-12-31T16:14:43;68503.22;;;8.78;100.00
22930;BME280;11630;42.660;23.292;2022-12-31T16:17:27;68491.56;;;8.74;100.00
22930;BME280;11630;42.660;23.292;2022-12-31T16:19:59;68483.95;;;8.62;100.00
22930;BME280;11630;42.660;23.292;2022-12-31T16:22:39;68488.83;;;8.64;100.00
22930;BME280;11630;42.660;23.292;2022-12-31T16:25:18;68495.34;;;8.70;100.00
22930;BME280;11630;42.660;23.292;2022-12-31T16:27:51;68487.48;;;8.64;100.00
22930;BME280;11630;42.660;23.292;2022-12-31T16:30:27;68483.16;;;8.65;100.00
22930;BME280;11630;42.660;23.292;2022-12-31T16:33:05;68489.92;;;8.67;100.00
22930;BME280;11630;42.660;23.292;2022-12-31T16:35:37;68482.32;;;8.58;100.00
22930;BME280;11630;42.660;23.292;2022-12-31T16:38:17;68491.01;;;8.66;100.00
22930;BME280;11630;42.660;23.292;2022-12-31T16:41:13;68493.43;;;8.67;100.00
22930;BME280;11630;42.660;23.292;2022-12-31T16:43:41;68487.48;;;8.64;100.00
22930;BME280;11630;42.660;23.292;2022-12-31T16:46:20;68471.73;;;8.52;100.00